sensor_id;sensor_type;location;lat;lon;timestamp;P1;durP1;ratioP1;P2;durP2;ratioP2
17361;SDS011;8798;51.938;4.348;2024-02-23T00:01:03;7.77;;;1.70;;
17361;SDS011;8798;51.938;4.348;2024-02-23T00:03:31;5.47;;;1.20;;
17361;SDS011;8798;51.938;4.348;2024-02-23T00:06:01;7.97;;;1.20;;
17361;SDS011;8798;51.938;4.348;2024-02-23T00:08:30;10.40;;;1.60;;
17361;SDS011;8798;51.938;4.348;2024-02-23T00:10:58;6.90;;;1.20;;
17361;SDS011;8798;51.938;4.348;2024-02-23T00:13:26;8.30;;;1.20;;
17361;SDS011;8798;51.938;4.348;2024-02-23T00:15:54;7.50;;;1.20;;
17361;SDS011;8798;51.938;4.348;2024-02-23T00:18:22;8.87;;;1.70;;
17361;SDS011;8798;51.938;4.348;2024-02-23T00:20:50;6.67;;;1.30;;
17361;SDS011;8798;51.938;4.348;2024-02-23T00:23:18;9.20;;;1.37;;
17361;SDS011;8798;51.938;4.348;2024-02-23T00:25:48;8.73;;;1.40;;
17361;SDS011;8798;51.938;4.348;2024-02-23T00:28:15;8.73;;;1.33;;
17361;SDS011;8798;51.938;4.348;2024-02-23T00:30:43;3.30;;;1.40;;
17361;SDS011;8798;51.938;4.348;2024-02-23T00:33:11;6.03;;;1.07;;
17361;SDS011;8798;51.938;4.348;2024-02-23T00:35:39;2.93;;;0.93;;
17361;SDS011;8798;51.938;4.348;2024-02-23T00:38:07;5.30;;;1.00;;
17361;SDS011;8798;51.938;4.348;2024-02-23T00:40:35;6.67;;;1.20;;
17361;SDS011;8798;51.938;4.348;2024-02-23T00:43:05;6.73;;;1.37;;
17361;SDS011;8798;51.938;4.348;2024-02-23T00:45:33;5.63;;;1.23;;
17361;SDS011;8798;51.938;4.348;2024-02-23T00:48:01;3.60;;;1.37;;
17361;SDS011;8798;51.938;4.348;2024-02-23T00:50:29;9.93;;;1.70;;
17361;SDS011;8798;51.938;4.348;2024-02-23T00:52:57;3.90;;;0.97;;
17361;SDS011;8798;51.938;4.348;2024-02-23T00:55:25;5.00;;;1.07;;
17361;SDS011;8798;51.938;4.348;2024-02-23T00:57:54;4.47;;;1.10;;
17361;SDS011;8798;51.938;4.348;2024-02-23T01:00:23;6.40;;;1.00;;
17361;SDS011;8798;51.938;4.348;2024-02-23T01:02:51;7.03;;;1.07;;
17361;SDS011;8798;51.938;4.348;2024-02-23T01:05:19;4.47;;;1.10;;
17361;SDS011;8798;51.938;4.348;2024-02-23T01:07:47;5.73;;;1.33;;
17361;SDS011;8798;51.938;4.348;2024-02-23T01:10:15;8.80;;;1.40;;
17361;SDS011;8798;51.938;4.348;2024-02-23T01:12:43;4.63;;;0.97;;
17361;SDS011;8798;51.938;4.348;2024-02-23T01:15:12;6.57;;;1.33;;
17361;SDS011;8798;51.938;4.348;2024-02-23T01:17:41;7.97;;;1.20;;
17361;SDS011;8798;51.938;4.348;2024-02-23T01:20:10;5.20;;;1.00;;
17361;SDS011;8798;51.938;4.348;2024-02-23T01:22:38;6.87;;;0.80;;
17361;SDS011;8798;51.938;4.348;2024-02-23T01:25:06;7.37;;;1.30;;
17361;SDS011;8798;51.938;4.348;2024-02-23T01:27:37;5.70;;;1.07;;
17361;SDS011;8798;51.938;4.348;2024-02-23T01:30:06;4.13;;;1.20;;
17361;SDS011;8798;51.938;4.348;2024-02-23T01:32:35;5.30;;;1.10;;
17361;SDS011;8798;51.938;4.348;2024-02-23T01:35:07;7.63;;;1.00;;
17361;SDS011;8798;51.938;4.348;2024-02-23T01:37:35;4.60;;;0.90;;
17361;SDS011;8798;51.938;4.348;2024-02-23T01:40:04;5.97;;;0.97;;
17361;SDS011;8798;51.938;4.348;2024-02-23T01:42:33;7.93;;;1.10;;
17361;SDS011;8798;51.938;4.348;2024-02-23T01:45:01;2.50;;;0.93;;
17361;SDS011;8798;51.938;4.348;2024-02-23T01:47:29;5.90;;;0.90;;
17361;SDS011;8798;51.938;4.348;2024-02-23T01:49:58;4.50;;;1.20;;
17361;SDS011;8798;51.938;4.348;2024-02-23T01:52:28;4.90;;;1.10;;
17361;SDS011;8798;51.938;4.348;2024-02-23T01:54:57;9.97;;;1.60;;
17361;SDS011;8798;51.938;4.348;2024-02-23T01:57:27;5.87;;;1.30;;
17361;SDS011;8798;51.938;4.348;2024-02-23T02:00:15;9.47;;;1.50;;
17361;SDS011;8798;51.938;4.348;2024-02-23T02:02:45;9.07;;;1.00;;
17361;SDS011;8798;51.938;4.348;2024-02-23T02:05:14;10.60;;;1.30;;
17361;SDS011;8798;51.938;4.348;2024-02-23T02:07:44;6.30;;;0.83;;
17361;SDS011;8798;51.938;4.348;2024-02-23T02:10:15;6.07;;;1.47;;
17361;SDS011;8798;51.938;4.348;2024-02-23T02:12:44;4.03;;;0.97;;
17361;SDS011;8798;51.938;4.348;2024-02-23T02:15:12;3.37;;;0.70;;
17361;SDS011;8798;51.938;4.348;2024-02-23T02:17:40;5.50;;;1.30;;
17361;SDS011;8798;51.938;4.348;2024-02-23T02:20:10;10.87;;;1.10;;
17361;SDS011;8798;51.938;4.348;2024-02-23T02:22:40;5.80;;;1.10;;
17361;SDS011;8798;51.938;4.348;2024-02-23T02:25:09;3.93;;;1.20;;
17361;SDS011;8798;51.938;4.348;2024-02-23T02:27:37;8.70;;;1.40;;
17361;SDS011;8798;51.938;4.348;2024-02-23T02:30:06;7.67;;;0.90;;
17361;SDS011;8798;51.938;4.348;2024-02-23T02:32:35;6.60;;;0.93;;
17361;SDS011;8798;51.938;4.348;2024-02-23T02:35:04;5.67;;;1.07;;
17361;SDS011;8798;51.938;4.348;2024-02-23T02:37:32;3.17;;;1.07;;
17361;SDS011;8798;51.938;4.348;2024-02-23T02:40:00;5.97;;;1.13;;
17361;SDS011;8798;51.938;4.348;2024-02-23T02:42:29;3.67;;;0.90;;
17361;SDS011;8798;51.938;4.348;2024-02-23T02:44:57;7.63;;;1.10;;
17361;SDS011;8798;51.938;4.348;2024-02-23T02:47:26;5.57;;;0.90;;
17361;SDS011;8798;51.938;4.348;2024-02-23T02:49:54;6.30;;;1.27;;
17361;SDS011;8798;51.938;4.348;2024-02-23T02:52:22;3.27;;;0.97;;
17361;SDS011;8798;51.938;4.348;2024-02-23T02:54:51;7.00;;;1.03;;
17361;SDS011;8798;51.938;4.348;2024-02-23T02:57:19;4.77;;;1.03;;
17361;SDS011;8798;51.938;4.348;2024-02-23T02:59:48;6.63;;;1.10;;
17361;SDS011;8798;51.938;4.348;2024-02-23T03:02:16;5.23;;;1.30;;
17361;SDS011;8798;51.938;4.348;2024-02-23T03:04:48;11.37;;;1.23;;
17361;SDS011;8798;51.938;4.348;2024-02-23T03:07:16;7.40;;;1.40;;
17361;SDS011;8798;51.938;4.348;2024-02-23T03:09:44;6.30;;;1.13;;
17361;SDS011;8798;51.938;4.348;2024-02-23T03:12:12;3.50;;;1.00;;
17361;SDS011;8798;51.938;4.348;2024-02-23T03:14:40;6.60;;;1.10;;
17361;SDS011;8798;51.938;4.348;2024-02-23T03:17:10;3.00;;;0.70;;
17361;SDS011;8798;51.938;4.348;2024-02-23T03:19:38;7.30;;;1.33;;
17361;SDS011;8798;51.938;4.348;2024-02-23T03:22:06;4.33;;;0.90;;
17361;SDS011;8798;51.938;4.348;2024-02-23T03:24:34;6.57;;;1.03;;
17361;SDS011;8798;51.938;4.348;2024-02-23T03:27:02;5.80;;;0.80;;
17361;SDS011;8798;51.938;4.348;2024-02-23T03:29:31;4.10;;;1.03;;
17361;SDS011;8798;51.938;4.348;2024-02-23T03:31:59;6.03;;;1.10;;
17361;SDS011;8798;51.938;4.348;2024-02-23T03:34:29;4.27;;;0.93;;
17361;SDS011;8798;51.938;4.348;2024-02-23T03:36:57;7.73;;;1.23;;
17361;SDS011;8798;51.938;4.348;2024-02-23T03:39:27;5.17;;;0.90;;
17361;SDS011;8798;51.938;4.348;2024-02-23T03:41:56;8.60;;;1.10;;
17361;SDS011;8798;51.938;4.348;2024-02-23T03:44:23;7.13;;;1.33;;
17361;SDS011;8798;51.938;4.348;2024-02-23T03:46:51;4.70;;;0.90;;
17361;SDS011;8798;51.938;4.348;2024-02-23T03:49:19;3.13;;;1.03;;
17361;SDS011;8798;51.938;4.348;2024-02-23T03:51:49;4.57;;;1.10;;
17361;SDS011;8798;51.938;4.348;2024-02-23T03:54:17;4.90;;;1.20;;
17361;SDS011;8798;51.938;4.348;2024-02-23T03:56:45;4.70;;;0.90;;
17361;SDS011;8798;51.938;4.348;2024-02-23T03:59:13;5.17;;;1.23;;
17361;SDS011;8798;51.938;4.348;2024-02-23T04:01:41;8.20;;;1.57;;
17361;SDS011;8798;51.938;4.348;2024-02-23T04:04:10;6.10;;;1.00;;
17361;SDS011;8798;51.938;4.348;2024-02-23T04:06:38;6.00;;;1.00;;
17361;SDS011;8798;51.938;4.348;2024-02-23T04:09:07;4.73;;;0.90;;
17361;SDS011;8798;51.938;4.348;2024-02-23T04:11:35;6.60;;;1.70;;
17361;SDS011;8798;51.938;4.348;2024-02-23T04:14:03;6.30;;;1.10;;
17361;SDS011;8798;51.938;4.348;2024-02-23T04:16:32;6.20;;;0.93;;
17361;SDS011;8798;51.938;4.348;2024-02-23T04:19:00;6.90;;;1.30;;
17361;SDS011;8798;51.938;4.348;2024-02-23T04:21:28;5.23;;;1.33;;
17361;SDS011;8798;51.938;4.348;2024-02-23T04:23:56;4.73;;;1.57;;
17361;SDS011;8798;51.938;4.348;2024-02-23T04:26:25;3.80;;;0.80;;
17361;SDS011;8798;51.938;4.348;2024-02-23T04:28:53;6.20;;;1.10;;
17361;SDS011;8798;51.938;4.348;2024-02-23T04:31:21;5.80;;;0.87;;
17361;SDS011;8798;51.938;4.348;2024-02-23T04:33:49;6.87;;;1.10;;
17361;SDS011;8798;51.938;4.348;2024-02-23T04:36:19;3.40;;;0.77;;
17361;SDS011;8798;51.938;4.348;2024-02-23T04:38:47;2.93;;;0.83;;
17361;SDS011;8798;51.938;4.348;2024-02-23T04:41:18;2.37;;;0.80;;
17361;SDS011;8798;51.938;4.348;2024-02-23T04:43:48;2.53;;;0.60;;
17361;SDS011;8798;51.938;4.348;2024-02-23T04:46:17;8.53;;;0.90;;
17361;SDS011;8798;51.938;4.348;2024-02-23T04:48:45;1.37;;;0.60;;
17361;SDS011;8798;51.938;4.348;2024-02-23T04:51:12;6.03;;;0.67;;
17361;SDS011;8798;51.938;4.348;2024-02-23T04:53:40;11.33;;;1.10;;
17361;SDS011;8798;51.938;4.348;2024-02-23T04:56:09;2.30;;;0.80;;
17361;SDS011;8798;51.938;4.348;2024-02-23T04:58:37;3.83;;;0.80;;
17361;SDS011;8798;51.938;4.348;2024-02-23T05:01:06;2.73;;;0.90;;
17361;SDS011;8798;51.938;4.348;2024-02-23T05:03:34;2.97;;;0.97;;
17361;SDS011;8798;51.938;4.348;2024-02-23T05:06:02;2.87;;;0.73;;
17361;SDS011;8798;51.938;4.348;2024-02-23T05:08:31;7.13;;;0.93;;
17361;SDS011;8798;51.938;4.348;2024-02-23T05:10:59;4.20;;;1.17;;
17361;SDS011;8798;51.938;4.348;2024-02-23T05:13:28;4.37;;;0.90;;
17361;SDS011;8798;51.938;4.348;2024-02-23T05:15:56;6.23;;;1.10;;
17361;SDS011;8798;51.938;4.348;2024-02-23T05:18:25;8.70;;;1.10;;
17361;SDS011;8798;51.938;4.348;2024-02-23T05:20:53;4.00;;;0.93;;
17361;SDS011;8798;51.938;4.348;2024-02-23T05:23:21;3.90;;;1.00;;
17361;SDS011;8798;51.938;4.348;2024-02-23T05:25:49;3.77;;;1.10;;
17361;SDS011;8798;51.938;4.348;2024-02-23T05:28:17;5.93;;;1.37;;
17361;SDS011;8798;51.938;4.348;2024-02-23T05:30:46;2.43;;;1.00;;
17361;SDS011;8798;51.938;4.348;2024-02-23T05:33:14;4.37;;;1.10;;
17361;SDS011;8798;51.938;4.348;2024-02-23T05:35:43;3.10;;;0.90;;
17361;SDS011;8798;51.938;4.348;2024-02-23T05:38:11;3.97;;;0.90;;
17361;SDS011;8798;51.938;4.348;2024-02-23T05:40:39;3.80;;;0.93;;
17361;SDS011;8798;51.938;4.348;2024-02-23T05:43:07;6.40;;;1.03;;
17361;SDS011;8798;51.938;4.348;2024-02-23T05:45:35;2.07;;;0.90;;
17361;SDS011;8798;51.938;4.348;2024-02-23T05:48:03;5.23;;;1.37;;
17361;SDS011;8798;51.938;4.348;2024-02-23T05:50:32;5.30;;;1.30;;
17361;SDS011;8798;51.938;4.348;2024-02-23T05:53:01;2.50;;;1.07;;
17361;SDS011;8798;51.938;4.348;2024-02-23T05:55:31;2.97;;;1.40;;
17361;SDS011;8798;51.938;4.348;2024-02-23T05:57:59;1.97;;;1.13;;
17361;SDS011;8798;51.938;4.348;2024-02-23T06:00:27;6.23;;;1.70;;
17361;SDS011;8798;51.938;4.348;2024-02-23T06:02:54;4.63;;;1.47;;
17361;SDS011;8798;51.938;4.348;2024-02-23T06:05:22;5.30;;;1.73;;
17361;SDS011;8798;51.938;4.348;2024-02-23T06:07:54;3.60;;;1.37;;
17361;SDS011;8798;51.938;4.348;2024-02-23T06:10:23;4.77;;;1.60;;
17361;SDS011;8798;51.938;4.348;2024-02-23T06:12:52;4.50;;;1.77;;
17361;SDS011;8798;51.938;4.348;2024-02-23T06:15:22;4.23;;;1.70;;
17361;SDS011;8798;51.938;4.348;2024-02-23T06:17:50;3.63;;;1.43;;
17361;SDS011;8798;51.938;4.348;2024-02-23T06:20:19;4.33;;;1.20;;
17361;SDS011;8798;51.938;4.348;2024-02-23T06:22:47;6.07;;;1.30;;
17361;SDS011;8798;51.938;4.348;2024-02-23T06:25:15;4.07;;;1.23;;
17361;SDS011;8798;51.938;4.348;2024-02-23T06:27:44;3.67;;;1.00;;
17361;SDS011;8798;51.938;4.348;2024-02-23T06:30:12;7.80;;;1.37;;
17361;SDS011;8798;51.938;4.348;2024-02-23T06:32:40;4.97;;;1.20;;
17361;SDS011;8798;51.938;4.348;2024-02-23T06:35:09;7.00;;;1.63;;
17361;SDS011;8798;51.938;4.348;2024-02-23T06:37:39;4.93;;;1.07;;
17361;SDS011;8798;51.938;4.348;2024-02-23T06:40:07;1.33;;;1.10;;
17361;SDS011;8798;51.938;4.348;2024-02-23T06:42:35;7.27;;;1.70;;
17361;SDS011;8798;51.938;4.348;2024-02-23T06:45:05;7.07;;;1.50;;
17361;SDS011;8798;51.938;4.348;2024-02-23T06:47:34;7.30;;;1.40;;
17361;SDS011;8798;51.938;4.348;2024-02-23T06:50:03;6.83;;;1.27;;
17361;SDS011;8798;51.938;4.348;2024-02-23T06:52:32;5.53;;;1.20;;
17361;SDS011;8798;51.938;4.348;2024-02-23T06:55:00;6.27;;;1.50;;
17361;SDS011;8798;51.938;4.348;2024-02-23T06:57:28;5.67;;;1.27;;
17361;SDS011;8798;51.938;4.348;2024-02-23T06:59:57;7.40;;;1.20;;
17361;SDS011;8798;51.938;4.348;2024-02-23T07:02:26;3.90;;;1.40;;
17361;SDS011;8798;51.938;4.348;2024-02-23T07:04:58;4.07;;;1.10;;
17361;SDS011;8798;51.938;4.348;2024-02-23T07:07:26;5.17;;;1.47;;
17361;SDS011;8798;51.938;4.348;2024-02-23T07:09:55;4.53;;;1.97;;
17361;SDS011;8798;51.938;4.348;2024-02-23T07:12:23;7.13;;;1.50;;
17361;SDS011;8798;51.938;4.348;2024-02-23T07:14:52;8.73;;;1.83;;
17361;SDS011;8798;51.938;4.348;2024-02-23T07:17:20;4.17;;;1.40;;
17361;SDS011;8798;51.938;4.348;2024-02-23T07:19:49;4.30;;;1.40;;
17361;SDS011;8798;51.938;4.348;2024-02-23T07:22:19;3.67;;;1.20;;
17361;SDS011;8798;51.938;4.348;2024-02-23T07:24:47;5.23;;;1.17;;
17361;SDS011;8798;51.938;4.348;2024-02-23T07:27:15;6.20;;;1.50;;
17361;SDS011;8798;51.938;4.348;2024-02-23T07:29:43;5.83;;;1.50;;
17361;SDS011;8798;51.938;4.348;2024-02-23T07:32:12;3.67;;;1.50;;
17361;SDS011;8798;51.938;4.348;2024-02-23T07:34:40;4.83;;;1.60;;
17361;SDS011;8798;51.938;4.348;2024-02-23T07:37:09;7.03;;;1.63;;
17361;SDS011;8798;51.938;4.348;2024-02-23T07:39:37;2.90;;;1.07;;
17361;SDS011;8798;51.938;4.348;2024-02-23T07:42:05;6.77;;;1.63;;
17361;SDS011;8798;51.938;4.348;2024-02-23T07:44:34;3.30;;;1.23;;
17361;SDS011;8798;51.938;4.348;2024-02-23T07:47:04;5.90;;;1.43;;
17361;SDS011;8798;51.938;4.348;2024-02-23T07:49:32;5.73;;;1.53;;
17361;SDS011;8798;51.938;4.348;2024-02-23T07:52:00;6.23;;;2.13;;
17361;SDS011;8798;51.938;4.348;2024-02-23T07:54:29;5.20;;;1.50;;
17361;SDS011;8798;51.938;4.348;2024-02-23T07:56:58;5.57;;;1.10;;
17361;SDS011;8798;51.938;4.348;2024-02-23T07:59:26;2.67;;;1.20;;
17361;SDS011;8798;51.938;4.348;2024-02-23T08:01:54;4.07;;;1.43;;
17361;SDS011;8798;51.938;4.348;2024-02-23T08:04:23;5.90;;;1.67;;
17361;SDS011;8798;51.938;4.348;2024-02-23T08:06:50;9.00;;;1.40;;
17361;SDS011;8798;51.938;4.348;2024-02-23T08:09:18;6.50;;;1.40;;
17361;SDS011;8798;51.938;4.348;2024-02-23T08:11:50;4.67;;;1.40;;
17361;SDS011;8798;51.938;4.348;2024-02-23T08:14:18;8.30;;;1.57;;
17361;SDS011;8798;51.938;4.348;2024-02-23T08:16:46;6.03;;;1.20;;
17361;SDS011;8798;51.938;4.348;2024-02-23T08:19:15;6.40;;;1.77;;
17361;SDS011;8798;51.938;4.348;2024-02-23T08:21:43;2.70;;;1.30;;
17361;SDS011;8798;51.938;4.348;2024-02-23T08:24:11;6.63;;;1.27;;
17361;SDS011;8798;51.938;4.348;2024-02-23T08:26:39;8.03;;;1.43;;
17361;SDS011;8798;51.938;4.348;2024-02-23T08:29:09;6.17;;;1.47;;
17361;SDS011;8798;51.938;4.348;2024-02-23T08:31:37;6.17;;;1.53;;
17361;SDS011;8798;51.938;4.348;2024-02-23T08:34:08;9.17;;;1.87;;
17361;SDS011;8798;51.938;4.348;2024-02-23T08:36:35;6.20;;;1.50;;
17361;SDS011;8798;51.938;4.348;2024-02-23T08:39:03;4.97;;;1.43;;
17361;SDS011;8798;51.938;4.348;2024-02-23T08:41:31;8.43;;;1.70;;
17361;SDS011;8798;51.938;4.348;2024-02-23T08:43:59;3.13;;;1.33;;
17361;SDS011;8798;51.938;4.348;2024-02-23T08:46:29;7.33;;;1.40;;
17361;SDS011;8798;51.938;4.348;2024-02-23T08:48:57;5.07;;;1.30;;
17361;SDS011;8798;51.938;4.348;2024-02-23T08:51:24;6.50;;;1.63;;
17361;SDS011;8798;51.938;4.348;2024-02-23T08:53:52;4.30;;;1.30;;
17361;SDS011;8798;51.938;4.348;2024-02-23T08:56:26;5.67;;;1.70;;
17361;SDS011;8798;51.938;4.348;2024-02-23T08:58:53;6.53;;;1.40;;
17361;SDS011;8798;51.938;4.348;2024-02-23T09:01:21;3.97;;;1.43;;
17361;SDS011;8798;51.938;4.348;2024-02-23T09:03:51;5.00;;;1.27;;
17361;SDS011;8798;51.938;4.348;2024-02-23T09:06:20;6.40;;;1.33;;
17361;SDS011;8798;51.938;4.348;2024-02-23T09:08:48;5.73;;;1.30;;
17361;SDS011;8798;51.938;4.348;2024-02-23T09:11:16;7.53;;;1.60;;
17361;SDS011;8798;51.938;4.348;2024-02-23T09:13:44;5.57;;;1.00;;
17361;SDS011;8798;51.938;4.348;2024-02-23T09:16:12;3.73;;;1.33;;
17361;SDS011;8798;51.938;4.348;2024-02-23T09:18:40;3.83;;;1.33;;
17361;SDS011;8798;51.938;4.348;2024-02-23T09:21:10;3.63;;;1.20;;
17361;SDS011;8798;51.938;4.348;2024-02-23T09:23:38;6.30;;;1.10;;
17361;SDS011;8798;51.938;4.348;2024-02-23T09:26:08;10.87;;;1.53;;
17361;SDS011;8798;51.938;4.348;2024-02-23T09:28:38;4.73;;;1.47;;
17361;SDS011;8798;51.938;4.348;2024-02-23T09:31:08;6.23;;;1.40;;
17361;SDS011;8798;51.938;4.348;2024-02-23T09:33:36;5.43;;;1.13;;
17361;SDS011;8798;51.938;4.348;2024-02-23T09:36:05;3.77;;;1.00;;
17361;SDS011;8798;51.938;4.348;2024-02-23T09:38:34;13.13;;;1.33;;
17361;SDS011;8798;51.938;4.348;2024-02-23T09:41:03;7.57;;;1.00;;
17361;SDS011;8798;51.938;4.348;2024-02-23T09:43:31;3.23;;;0.90;;
17361;SDS011;8798;51.938;4.348;2024-02-23T09:46:00;4.33;;;1.20;;
17361;SDS011;8798;51.938;4.348;2024-02-23T09:48:28;4.20;;;1.40;;
17361;SDS011;8798;51.938;4.348;2024-02-23T09:51:01;4.07;;;0.90;;
17361;SDS011;8798;51.938;4.348;2024-02-23T09:53:29;4.57;;;1.20;;
17361;SDS011;8798;51.938;4.348;2024-02-23T09:55:59;1.43;;;0.87;;
17361;SDS011;8798;51.938;4.348;2024-02-23T09:58:29;2.73;;;0.80;;
17361;SDS011;8798;51.938;4.348;2024-02-23T10:00:58;2.60;;;1.20;;
17361;SDS011;8798;51.938;4.348;2024-02-23T10:03:29;2.97;;;1.07;;
17361;SDS011;8798;51.938;4.348;2024-02-23T10:05:57;6.30;;;1.17;;
17361;SDS011;8798;51.938;4.348;2024-02-23T10:08:27;2.00;;;0.87;;
17361;SDS011;8798;51.938;4.348;2024-02-23T10:10:55;2.73;;;0.73;;
17361;SDS011;8798;51.938;4.348;2024-02-23T10:13:25;2.53;;;0.87;;
17361;SDS011;8798;51.938;4.348;2024-02-23T10:15:53;4.80;;;1.10;;
17361;SDS011;8798;51.938;4.348;2024-02-23T10:18:39;4.43;;;1.00;;
17361;SDS011;8798;51.938;4.348;2024-02-23T10:21:08;2.93;;;0.90;;
17361;SDS011;8798;51.938;4.348;2024-02-23T10:23:35;4.73;;;1.03;;
17361;SDS011;8798;51.938;4.348;2024-02-23T10:26:04;6.47;;;0.90;;
17361;SDS011;8798;51.938;4.348;2024-02-23T10:28:34;2.93;;;0.80;;
17361;SDS011;8798;51.938;4.348;2024-02-23T10:31:02;4.53;;;0.97;;
17361;SDS011;8798;51.938;4.348;2024-02-23T10:33:30;4.53;;;0.87;;
17361;SDS011;8798;51.938;4.348;2024-02-23T10:35:59;4.70;;;1.27;;
17361;SDS011;8798;51.938;4.348;2024-02-23T10:38:31;3.37;;;1.23;;
17361;SDS011;8798;51.938;4.348;2024-02-23T10:41:01;3.53;;;1.10;;
17361;SDS011;8798;51.938;4.348;2024-02-23T10:43:36;3.93;;;0.90;;
17361;SDS011;8798;51.938;4.348;2024-02-23T10:46:10;5.90;;;1.10;;
17361;SDS011;8798;51.938;4.348;2024-02-23T10:48:43;6.47;;;1.13;;
17361;SDS011;8798;51.938;4.348;2024-02-23T10:51:17;7.60;;;1.17;;
17361;SDS011;8798;51.938;4.348;2024-02-23T10:53:46;4.90;;;1.27;;
17361;SDS011;8798;51.938;4.348;2024-02-23T10:56:16;8.43;;;1.20;;
17361;SDS011;8798;51.938;4.348;2024-02-23T10:58:46;2.63;;;1.27;;
17361;SDS011;8798;51.938;4.348;2024-02-23T11:01:14;6.93;;;1.13;;
17361;SDS011;8798;51.938;4.348;2024-02-23T11:03:44;5.63;;;1.27;;
17361;SDS011;8798;51.938;4.348;2024-02-23T11:06:18;4.63;;;0.97;;
17361;SDS011;8798;51.938;4.348;2024-02-23T11:08:49;4.00;;;1.20;;
17361;SDS011;8798;51.938;4.348;2024-02-23T11:11:18;2.23;;;0.90;;
17361;SDS011;8798;51.938;4.348;2024-02-23T11:13:47;3.60;;;1.10;;
17361;SDS011;8798;51.938;4.348;2024-02-23T11:16:21;3.13;;;1.20;;
17361;SDS011;8798;51.938;4.348;2024-02-23T11:18:50;2.13;;;0.90;;
17361;SDS011;8798;51.938;4.348;2024-02-23T11:21:35;5.30;;;1.30;;
17361;SDS011;8798;51.938;4.348;2024-02-23T11:24:04;3.27;;;1.20;;
17361;SDS011;8798;51.938;4.348;2024-02-23T11:26:33;6.07;;;1.20;;
17361;SDS011;8798;51.938;4.348;2024-02-23T11:29:11;1.37;;;0.90;;
17361;SDS011;8798;51.938;4.348;2024-02-23T11:31:44;4.47;;;1.00;;
17361;SDS011;8798;51.938;4.348;2024-02-23T11:34:12;3.17;;;1.20;;
17361;SDS011;8798;51.938;4.348;2024-02-23T11:36:40;5.90;;;1.00;;
17361;SDS011;8798;51.938;4.348;2024-02-23T11:39:08;2.97;;;1.17;;
17361;SDS011;8798;51.938;4.348;2024-02-23T11:41:37;3.10;;;1.10;;
17361;SDS011;8798;51.938;4.348;2024-02-23T11:44:06;3.80;;;0.90;;
17361;SDS011;8798;51.938;4.348;2024-02-23T11:46:35;3.80;;;0.90;;
17361;SDS011;8798;51.938;4.348;2024-02-23T11:49:03;3.93;;;0.83;;
17361;SDS011;8798;51.938;4.348;2024-02-23T11:51:31;5.93;;;1.17;;
17361;SDS011;8798;51.938;4.348;2024-02-23T11:53:59;3.97;;;1.10;;
17361;SDS011;8798;51.938;4.348;2024-02-23T11:56:28;2.77;;;1.20;;
17361;SDS011;8798;51.938;4.348;2024-02-23T11:58:57;4.93;;;1.00;;
17361;SDS011;8798;51.938;4.348;2024-02-23T12:01:28;2.93;;;0.83;;
17361;SDS011;8798;51.938;4.348;2024-02-23T12:03:58;3.20;;;1.13;;
17361;SDS011;8798;51.938;4.348;2024-02-23T12:06:26;4.47;;;1.00;;
17361;SDS011;8798;51.938;4.348;2024-02-23T12:08:56;5.67;;;1.67;;
17361;SDS011;8798;51.938;4.348;2024-02-23T12:11:25;3.67;;;0.90;;
17361;SDS011;8798;51.938;4.348;2024-02-23T12:13:55;3.60;;;1.20;;
17361;SDS011;8798;51.938;4.348;2024-02-23T12:16:26;4.20;;;0.90;;
17361;SDS011;8798;51.938;4.348;2024-02-23T12:18:54;5.53;;;1.00;;
17361;SDS011;8798;51.938;4.348;2024-02-23T12:21:24;5.20;;;1.00;;
17361;SDS011;8798;51.938;4.348;2024-02-23T12:23:52;2.20;;;0.80;;
17361;SDS011;8798;51.938;4.348;2024-02-23T12:26:20;4.27;;;0.87;;
17361;SDS011;8798;51.938;4.348;2024-02-23T12:28:48;2.97;;;0.90;;
17361;SDS011;8798;51.938;4.348;2024-02-23T12:31:16;4.47;;;1.43;;
17361;SDS011;8798;51.938;4.348;2024-02-23T12:33:51;3.43;;;0.80;;
17361;SDS011;8798;51.938;4.348;2024-02-23T12:36:19;3.17;;;0.77;;
17361;SDS011;8798;51.938;4.348;2024-02-23T12:38:48;3.03;;;0.90;;
17361;SDS011;8798;51.938;4.348;2024-02-23T12:41:17;3.43;;;1.07;;
17361;SDS011;8798;51.938;4.348;2024-02-23T12:43:44;4.50;;;1.13;;
17361;SDS011;8798;51.938;4.348;2024-02-23T12:46:14;2.73;;;0.70;;
17361;SDS011;8798;51.938;4.348;2024-02-23T12:48:42;4.83;;;1.03;;
17361;SDS011;8798;51.938;4.348;2024-02-23T12:51:10;3.17;;;1.00;;
17361;SDS011;8798;51.938;4.348;2024-02-23T12:53:39;2.77;;;0.90;;
17361;SDS011;8798;51.938;4.348;2024-02-23T12:56:10;2.73;;;0.60;;
17361;SDS011;8798;51.938;4.348;2024-02-23T12:58:40;3.50;;;0.70;;
17361;SDS011;8798;51.938;4.348;2024-02-23T13:01:09;2.17;;;0.70;;
17361;SDS011;8798;51.938;4.348;2024-02-23T13:03:38;0.63;;;0.50;;
17361;SDS011;8798;51.938;4.348;2024-02-23T13:06:08;1.10;;;0.47;;
17361;SDS011;8798;51.938;4.348;2024-02-23T13:08:36;4.13;;;0.57;;
17361;SDS011;8798;51.938;4.348;2024-02-23T13:11:05;1.90;;;0.57;;
17361;SDS011;8798;51.938;4.348;2024-02-23T13:13:35;0.50;;;0.40;;
17361;SDS011;8798;51.938;4.348;2024-02-23T13:16:05;2.57;;;0.87;;
17361;SDS011;8798;51.938;4.348;2024-02-23T13:18:34;0.60;;;0.30;;
17361;SDS011;8798;51.938;4.348;2024-02-23T13:21:03;1.03;;;0.40;;
17361;SDS011;8798;51.938;4.348;2024-02-23T13:23:31;1.30;;;0.50;;
17361;SDS011;8798;51.938;4.348;2024-02-23T13:25:59;0.53;;;0.20;;
17361;SDS011;8798;51.938;4.348;2024-02-23T13:28:29;0.40;;;0.40;;
17361;SDS011;8798;51.938;4.348;2024-02-23T13:30:59;0.50;;;0.40;;
17361;SDS011;8798;51.938;4.348;2024-02-23T13:33:27;2.47;;;0.60;;
17361;SDS011;8798;51.938;4.348;2024-02-23T13:35:55;1.87;;;0.43;;
17361;SDS011;8798;51.938;4.348;2024-02-23T13:38:23;0.90;;;0.50;;
17361;SDS011;8798;51.938;4.348;2024-02-23T13:40:51;0.83;;;0.40;;
17361;SDS011;8798;51.938;4.348;2024-02-23T13:43:19;0.90;;;0.50;;
17361;SDS011;8798;51.938;4.348;2024-02-23T13:45:48;1.47;;;0.40;;
17361;SDS011;8798;51.938;4.348;2024-02-23T13:48:19;2.47;;;0.43;;
17361;SDS011;8798;51.938;4.348;2024-02-23T13:50:47;0.33;;;0.30;;
17361;SDS011;8798;51.938;4.348;2024-02-23T13:53:16;0.40;;;0.40;;
17361;SDS011;8798;51.938;4.348;2024-02-23T13:55:44;1.70;;;0.40;;
17361;SDS011;8798;51.938;4.348;2024-02-23T13:58:12;3.10;;;0.60;;
17361;SDS011;8798;51.938;4.348;2024-02-23T14:00:40;0.67;;;0.40;;
17361;SDS011;8798;51.938;4.348;2024-02-23T14:03:08;0.47;;;0.40;;
17361;SDS011;8798;51.938;4.348;2024-02-23T14:05:40;1.10;;;0.30;;
17361;SDS011;8798;51.938;4.348;2024-02-23T14:08:11;1.80;;;0.50;;
17361;SDS011;8798;51.938;4.348;2024-02-23T14:10:39;0.67;;;0.53;;
17361;SDS011;8798;51.938;4.348;2024-02-23T14:13:09;1.43;;;0.60;;
17361;SDS011;8798;51.938;4.348;2024-02-23T14:15:38;2.03;;;0.50;;
17361;SDS011;8798;51.938;4.348;2024-02-23T14:18:06;2.60;;;0.60;;
17361;SDS011;8798;51.938;4.348;2024-02-23T14:20:34;1.10;;;0.60;;
17361;SDS011;8798;51.938;4.348;2024-02-23T14:23:04;1.77;;;0.50;;
17361;SDS011;8798;51.938;4.348;2024-02-23T14:25:31;1.70;;;0.50;;
17361;SDS011;8798;51.938;4.348;2024-02-23T14:27:59;1.17;;;0.50;;
17361;SDS011;8798;51.938;4.348;2024-02-23T14:30:27;1.90;;;0.60;;
17361;SDS011;8798;51.938;4.348;2024-02-23T14:32:55;1.23;;;0.50;;
17361;SDS011;8798;51.938;4.348;2024-02-23T14:35:23;0.40;;;0.40;;
17361;SDS011;8798;51.938;4.348;2024-02-23T14:37:51;2.40;;;0.60;;
17361;SDS011;8798;51.938;4.348;2024-02-23T14:40:21;1.33;;;0.53;;
17361;SDS011;8798;51.938;4.348;2024-02-23T14:42:49;1.07;;;0.53;;
17361;SDS011;8798;51.938;4.348;2024-02-23T14:45:17;1.57;;;0.70;;
17361;SDS011;8798;51.938;4.348;2024-02-23T14:47:45;2.23;;;1.13;;
17361;SDS011;8798;51.938;4.348;2024-02-23T14:50:13;1.93;;;0.70;;
17361;SDS011;8798;51.938;4.348;2024-02-23T14:52:41;2.57;;;0.93;;
17361;SDS011;8798;51.938;4.348;2024-02-23T14:55:11;1.80;;;0.70;;
17361;SDS011;8798;51.938;4.348;2024-02-23T14:57:41;1.67;;;0.80;;
17361;SDS011;8798;51.938;4.348;2024-02-23T15:00:09;1.40;;;0.70;;
17361;SDS011;8798;51.938;4.348;2024-02-23T15:02:38;1.63;;;0.70;;
17361;SDS011;8798;51.938;4.348;2024-02-23T15:05:06;2.47;;;0.90;;
17361;SDS011;8798;51.938;4.348;2024-02-23T15:07:35;2.17;;;0.90;;
17361;SDS011;8798;51.938;4.348;2024-02-23T15:10:03;4.37;;;0.80;;